KCQB

Chandler Regional Airport

Chandler, Oklahoma, USA
METAR KCQB 190855Z AUTO 18003KT 10SM CLR 22/20 A2993 RMK AO2 T02250204
Observed Flight Rules
Sep-19 @ 08:55 UTC (24 minutes ago) Visual Flight Rules
Wind Visibility Clouds
180° at 3 knots 10 miles
  • Clear skies
Temperatures Readings
Current 23°C / 73°F
Dewpoint 20°C / 68°F
Humidity 83%
Altimeter 29.93" Hg
Pressure 1014 hPa
Elevation 300
METAR KCQB 190855Z AUTO 18003KT 10SM CLR 22/20 A2993 RMK AO2 T02250204
Observed Flight Rules
Sep-19 @ 08:55 UTC
(24 minutes ago)
VFR
Wind Visibility
180° at 3 knots 10 miles
Clouds
  • Clear skies
Temperature Dewpoint
23°C / 73°F 20°C / 68°F
Humidity Altimeter Pressure
83% 29.93" Hg 1014 hPa